Portada
METAR-TAF:

METAR-TAF

Aeroports :

Ningbo, Xina

latitud: 29-49-36N, longitud: 121-27-43E, altitud: 4 m

Observació

L'informe es va fer fa 55 minuts, a les 04:00 UTC
Vent 10 kt del Nord, variant entre Nord/Nord-Oest i Est/Nord-Est
Temperatura 21°C
Humitat 49%
Pressió 1028 hPa
Visibilitat 10 km o més
Cel ennuvolat a una alçada de 3300 ft

METAR: ZSNB 150400Z 01005MPS 330V060 9999 BKN033 21/10 Q1028 NOSIG

Hora: 12:55 (04:55 UTC)

Pronòstic

L'informe es va fer fa 9 hores i 24 minuts, a les 19:31 UTC
Pronòstic vàlid del 15 a les 00 UTC al 15 a les 24 UTC
Vent 10 kt del Nord amb ràfegues de 19 kt
Visibilitat: 3500 m
Cel ennuvolat a una alçada de 3000 ft
boirina

TAF: ZSNB 141931Z 1500/1524 36005G10MPS 3500 BR BKN030 TX20/1506Z TN17/1521Z

Observacions i pronòstics meteorològics de més de 4000 aeroports (METAR i TAF).

Les estacions disponibles són els punts grocs i vermells al mapa.

Posi el ratolí al punt desitjat per veure el nom de l'estació.

Feu clic per veure les observacions i els pronòstics meteorològics.

Per canviar el mapa: feu clic els botons verds amb una creu de color negre per apropar; al botó verd amb un guió per allunyar la imatge; o en les fletxes verdes per a mapes adjacents.


METAR-TAF: